sensor_id;sensor_type;location;lat;lon;timestamp;P1;durP1;ratioP1;P2;durP2;ratioP2
2542;SDS011;1116;51.502;7.414;2023-04-24T00:00:38;3.83;;;0.87;;
2542;SDS011;1116;51.502;7.414;2023-04-24T00:03:09;1.83;;;0.70;;
2542;SDS011;1116;51.502;7.414;2023-04-24T00:05:43;3.27;;;1.00;;
2542;SDS011;1116;51.502;7.414;2023-04-24T00:08:14;1.13;;;0.80;;
2542;SDS011;1116;51.502;7.414;2023-04-24T00:10:45;1.57;;;1.00;;
2542;SDS011;1116;51.502;7.414;2023-04-24T00:13:16;2.03;;;0.80;;
2542;SDS011;1116;51.502;7.414;2023-04-24T00:15:47;2.10;;;0.90;;
2542;SDS011;1116;51.502;7.414;2023-04-24T00:18:18;0.87;;;0.80;;
2542;SDS011;1116;51.502;7.414;2023-04-24T00:20:51;0.97;;;0.80;;
2542;SDS011;1116;51.502;7.414;2023-04-24T00:23:22;0.90;;;0.90;;
2542;SDS011;1116;51.502;7.414;2023-04-24T00:25:53;1.80;;;1.10;;
2542;SDS011;1116;51.502;7.414;2023-04-24T00:28:24;0.93;;;0.93;;
2542;SDS011;1116;51.502;7.414;2023-04-24T00:30:54;1.50;;;1.00;;
2542;SDS011;1116;51.502;7.414;2023-04-24T00:33:28;2.70;;;0.90;;
2542;SDS011;1116;51.502;7.414;2023-04-24T00:36:02;1.30;;;1.20;;
2542;SDS011;1116;51.502;7.414;2023-04-24T00:38:33;1.73;;;1.20;;
2542;SDS011;1116;51.502;7.414;2023-04-24T00:41:04;1.53;;;1.00;;
2542;SDS011;1116;51.502;7.414;2023-04-24T00:43:35;0.90;;;0.90;;
2542;SDS011;1116;51.502;7.414;2023-04-24T00:46:05;3.20;;;1.10;;
2542;SDS011;1116;51.502;7.414;2023-04-24T00:48:37;1.80;;;1.53;;
2542;SDS011;1116;51.502;7.414;2023-04-24T00:51:12;1.13;;;1.03;;
2542;SDS011;1116;51.502;7.414;2023-04-24T00:53:43;1.80;;;1.40;;
2542;SDS011;1116;51.502;7.414;2023-04-24T00:56:14;1.97;;;1.57;;
2542;SDS011;1116;51.502;7.414;2023-04-24T00:58:45;2.50;;;1.40;;
2542;SDS011;1116;51.502;7.414;2023-04-24T01:01:17;1.23;;;1.13;;
2542;SDS011;1116;51.502;7.414;2023-04-24T01:03:50;1.30;;;1.20;;
2542;SDS011;1116;51.502;7.414;2023-04-24T01:06:26;1.60;;;1.20;;
2542;SDS011;1116;51.502;7.414;2023-04-24T01:08:59;1.33;;;1.20;;
2542;SDS011;1116;51.502;7.414;2023-04-24T01:11:31;3.83;;;1.50;;
2542;SDS011;1116;51.502;7.414;2023-04-24T01:14:02;2.30;;;1.40;;
2542;SDS011;1116;51.502;7.414;2023-04-24T01:16:33;3.10;;;1.80;;
2542;SDS011;1116;51.502;7.414;2023-04-24T01:19:05;2.30;;;1.63;;
2542;SDS011;1116;51.502;7.414;2023-04-24T01:21:39;8.37;;;2.13;;
2542;SDS011;1116;51.502;7.414;2023-04-24T01:24:15;2.17;;;1.37;;
2542;SDS011;1116;51.502;7.414;2023-04-24T01:26:46;1.80;;;1.70;;
2542;SDS011;1116;51.502;7.414;2023-04-24T01:29:17;2.43;;;1.33;;
2542;SDS011;1116;51.502;7.414;2023-04-24T01:31:48;1.40;;;1.30;;
2542;SDS011;1116;51.502;7.414;2023-04-24T01:34:20;1.60;;;1.30;;
2542;SDS011;1116;51.502;7.414;2023-04-24T01:36:51;1.77;;;1.63;;
2542;SDS011;1116;51.502;7.414;2023-04-24T01:39:26;2.00;;;1.53;;
2542;SDS011;1116;51.502;7.414;2023-04-24T01:41:57;1.47;;;1.37;;
2542;SDS011;1116;51.502;7.414;2023-04-24T01:44:29;2.33;;;1.43;;
2542;SDS011;1116;51.502;7.414;2023-04-24T01:47:01;2.20;;;1.30;;
2542;SDS011;1116;51.502;7.414;2023-04-24T01:49:32;1.87;;;1.70;;
2542;SDS011;1116;51.502;7.414;2023-04-24T01:52:03;1.67;;;1.57;;
2542;SDS011;1116;51.502;7.414;2023-04-24T01:54:37;2.10;;;1.67;;
2542;SDS011;1116;51.502;7.414;2023-04-24T01:57:08;1.70;;;1.60;;
2542;SDS011;1116;51.502;7.414;2023-04-24T01:59:39;1.60;;;1.50;;
2542;SDS011;1116;51.502;7.414;2023-04-24T02:02:10;1.67;;;1.57;;
2542;SDS011;1116;51.502;7.414;2023-04-24T02:04:42;4.53;;;1.63;;
2542;SDS011;1116;51.502;7.414;2023-04-24T02:07:13;2.20;;;1.70;;
2542;SDS011;1116;51.502;7.414;2023-04-24T02:09:47;2.30;;;2.00;;
2542;SDS011;1116;51.502;7.414;2023-04-24T02:12:19;2.23;;;1.70;;
2542;SDS011;1116;51.502;7.414;2023-04-24T02:14:50;1.70;;;1.60;;
2542;SDS011;1116;51.502;7.414;2023-04-24T02:17:21;2.43;;;2.23;;
2542;SDS011;1116;51.502;7.414;2023-04-24T02:19:52;2.33;;;2.00;;
2542;SDS011;1116;51.502;7.414;2023-04-24T02:22:23;2.70;;;2.23;;
2542;SDS011;1116;51.502;7.414;2023-04-24T02:24:56;2.53;;;2.20;;
2542;SDS011;1116;51.502;7.414;2023-04-24T02:27:30;3.57;;;2.37;;
2542;SDS011;1116;51.502;7.414;2023-04-24T02:30:01;2.80;;;2.60;;
2542;SDS011;1116;51.502;7.414;2023-04-24T02:32:32;4.20;;;2.77;;
2542;SDS011;1116;51.502;7.414;2023-04-24T02:35:04;3.60;;;2.70;;
2542;SDS011;1116;51.502;7.414;2023-04-24T02:37:35;4.10;;;3.03;;
2542;SDS011;1116;51.502;7.414;2023-04-24T02:40:10;3.47;;;2.97;;
2542;SDS011;1116;51.502;7.414;2023-04-24T02:42:41;6.03;;;3.20;;
2542;SDS011;1116;51.502;7.414;2023-04-24T02:45:12;3.30;;;3.00;;
2542;SDS011;1116;51.502;7.414;2023-04-24T02:47:43;3.63;;;3.27;;
2542;SDS011;1116;51.502;7.414;2023-04-24T02:50:14;4.67;;;3.23;;
2542;SDS011;1116;51.502;7.414;2023-04-24T02:52:45;6.23;;;3.60;;
2542;SDS011;1116;51.502;7.414;2023-04-24T02:55:19;4.43;;;3.60;;
2542;SDS011;1116;51.502;7.414;2023-04-24T02:57:50;4.93;;;4.43;;
2542;SDS011;1116;51.502;7.414;2023-04-24T03:00:21;5.73;;;5.13;;
2542;SDS011;1116;51.502;7.414;2023-04-24T03:02:52;6.10;;;5.50;;
2542;SDS011;1116;51.502;7.414;2023-04-24T03:05:24;10.00;;;6.13;;
2542;SDS011;1116;51.502;7.414;2023-04-24T03:07:54;6.53;;;5.30;;
2542;SDS011;1116;51.502;7.414;2023-04-24T03:10:28;8.10;;;7.30;;
2542;SDS011;1116;51.502;7.414;2023-04-24T03:12:59;7.30;;;6.60;;
2542;SDS011;1116;51.502;7.414;2023-04-24T03:15:30;8.10;;;7.07;;
2542;SDS011;1116;51.502;7.414;2023-04-24T03:18:01;8.10;;;7.30;;
2542;SDS011;1116;51.502;7.414;2023-04-24T03:20:32;7.53;;;6.50;;
2542;SDS011;1116;51.502;7.414;2023-04-24T03:23:04;7.97;;;6.93;;
2542;SDS011;1116;51.502;7.414;2023-04-24T03:25:37;11.03;;;7.70;;
2542;SDS011;1116;51.502;7.414;2023-04-24T03:28:10;9.63;;;7.20;;
2542;SDS011;1116;51.502;7.414;2023-04-24T03:30:41;10.00;;;7.17;;
2542;SDS011;1116;51.502;7.414;2023-04-24T03:33:12;8.70;;;7.80;;
2542;SDS011;1116;51.502;7.414;2023-04-24T03:35:42;8.27;;;7.47;;
2542;SDS011;1116;51.502;7.414;2023-04-24T03:38:13;9.53;;;8.20;;
2542;SDS011;1116;51.502;7.414;2023-04-24T03:40:49;9.53;;;8.53;;
2542;SDS011;1116;51.502;7.414;2023-04-24T03:43:20;8.77;;;7.57;;
2542;SDS011;1116;51.502;7.414;2023-04-24T03:45:51;9.10;;;8.20;;
2542;SDS011;1116;51.502;7.414;2023-04-24T03:48:22;10.60;;;8.23;;
2542;SDS011;1116;51.502;7.414;2023-04-24T03:50:53;12.20;;;8.87;;
2542;SDS011;1116;51.502;7.414;2023-04-24T03:53:24;11.27;;;9.73;;
2542;SDS011;1116;51.502;7.414;2023-04-24T03:55:58;10.50;;;9.27;;
2542;SDS011;1116;51.502;7.414;2023-04-24T03:58:29;11.40;;;9.30;;
2542;SDS011;1116;51.502;7.414;2023-04-24T04:01:00;10.70;;;9.60;;
2542;SDS011;1116;51.502;7.414;2023-04-24T04:03:31;11.70;;;9.70;;
2542;SDS011;1116;51.502;7.414;2023-04-24T04:06:02;10.97;;;9.87;;
2542;SDS011;1116;51.502;7.414;2023-04-24T04:08:33;10.63;;;9.07;;
2542;SDS011;1116;51.502;7.414;2023-04-24T04:11:07;12.50;;;9.43;;
2542;SDS011;1116;51.502;7.414;2023-04-24T04:13:38;11.03;;;9.60;;
2542;SDS011;1116;51.502;7.414;2023-04-24T04:16:09;11.30;;;8.50;;
2542;SDS011;1116;51.502;7.414;2023-04-24T04:18:40;14.73;;;9.50;;
2542;SDS011;1116;51.502;7.414;2023-04-24T04:21:16;11.67;;;8.80;;
2542;SDS011;1116;51.502;7.414;2023-04-24T04:23:48;11.63;;;9.43;;
2542;SDS011;1116;51.502;7.414;2023-04-24T04:26:21;10.30;;;9.20;;
2542;SDS011;1116;51.502;7.414;2023-04-24T04:28:53;10.20;;;9.20;;
2542;SDS011;1116;51.502;7.414;2023-04-24T04:31:23;13.03;;;10.77;;
2542;SDS011;1116;51.502;7.414;2023-04-24T04:33:56;11.03;;;9.70;;
2542;SDS011;1116;51.502;7.414;2023-04-24T04:36:29;11.37;;;10.17;;
2542;SDS011;1116;51.502;7.414;2023-04-24T04:39:00;11.57;;;10.43;;
2542;SDS011;1116;51.502;7.414;2023-04-24T04:41:34;11.63;;;10.43;;
2542;SDS011;1116;51.502;7.414;2023-04-24T04:44:07;11.23;;;10.13;;
2542;SDS011;1116;51.502;7.414;2023-04-24T04:46:38;12.40;;;10.60;;
2542;SDS011;1116;51.502;7.414;2023-04-24T04:49:09;18.97;;;11.40;;
2542;SDS011;1116;51.502;7.414;2023-04-24T04:51:44;11.67;;;10.53;;
2542;SDS011;1116;51.502;7.414;2023-04-24T04:54:15;15.43;;;11.50;;
2542;SDS011;1116;51.502;7.414;2023-04-24T04:56:52;14.20;;;10.33;;
2542;SDS011;1116;51.502;7.414;2023-04-24T04:59:24;12.13;;;10.80;;
2542;SDS011;1116;51.502;7.414;2023-04-24T05:01:58;10.63;;;9.60;;
2542;SDS011;1116;51.502;7.414;2023-04-24T05:04:29;12.50;;;10.37;;
2542;SDS011;1116;51.502;7.414;2023-04-24T05:07:00;12.93;;;10.47;;
2542;SDS011;1116;51.502;7.414;2023-04-24T05:09:32;18.23;;;11.50;;
2542;SDS011;1116;51.502;7.414;2023-04-24T05:12:05;11.70;;;10.40;;
2542;SDS011;1116;51.502;7.414;2023-04-24T05:14:36;15.53;;;11.87;;
2542;SDS011;1116;51.502;7.414;2023-04-24T05:17:08;11.80;;;10.60;;
2542;SDS011;1116;51.502;7.414;2023-04-24T05:19:39;15.73;;;10.60;;
2542;SDS011;1116;51.502;7.414;2023-04-24T05:22:10;12.40;;;11.03;;
2542;SDS011;1116;51.502;7.414;2023-04-24T05:24:42;12.57;;;10.80;;
2542;SDS011;1116;51.502;7.414;2023-04-24T05:27:16;11.60;;;10.27;;
2542;SDS011;1116;51.502;7.414;2023-04-24T05:29:47;11.40;;;10.13;;
2542;SDS011;1116;51.502;7.414;2023-04-24T05:32:18;11.33;;;8.90;;
2542;SDS011;1116;51.502;7.414;2023-04-24T05:34:49;11.40;;;9.07;;
2542;SDS011;1116;51.502;7.414;2023-04-24T05:37:19;9.37;;;8.23;;
2542;SDS011;1116;51.502;7.414;2023-04-24T05:39:50;13.10;;;9.77;;
2542;SDS011;1116;51.502;7.414;2023-04-24T05:42:24;9.70;;;8.73;;
2542;SDS011;1116;51.502;7.414;2023-04-24T05:44:55;9.57;;;8.57;;
2542;SDS011;1116;51.502;7.414;2023-04-24T05:47:26;9.00;;;8.10;;
2542;SDS011;1116;51.502;7.414;2023-04-24T05:49:57;11.10;;;8.37;;
2542;SDS011;1116;51.502;7.414;2023-04-24T05:52:28;9.03;;;8.23;;
2542;SDS011;1116;51.502;7.414;2023-04-24T05:54:59;8.17;;;7.33;;
2542;SDS011;1116;51.502;7.414;2023-04-24T05:57:33;9.90;;;8.37;;
2542;SDS011;1116;51.502;7.414;2023-04-24T06:00:05;8.70;;;7.80;;
2542;SDS011;1116;51.502;7.414;2023-04-24T06:02:39;10.37;;;8.20;;
2542;SDS011;1116;51.502;7.414;2023-04-24T06:05:10;8.90;;;8.03;;
2542;SDS011;1116;51.502;7.414;2023-04-24T06:07:44;8.57;;;7.67;;
2542;SDS011;1116;51.502;7.414;2023-04-24T06:10:15;10.30;;;9.40;;
2542;SDS011;1116;51.502;7.414;2023-04-24T06:12:49;9.63;;;8.73;;
2542;SDS011;1116;51.502;7.414;2023-04-24T06:15:21;10.13;;;9.10;;
2542;SDS011;1116;51.502;7.414;2023-04-24T06:17:52;9.83;;;8.80;;
2542;SDS011;1116;51.502;7.414;2023-04-24T06:20:23;9.90;;;8.93;;
2542;SDS011;1116;51.502;7.414;2023-04-24T06:22:55;11.17;;;8.33;;
2542;SDS011;1116;51.502;7.414;2023-04-24T06:25:26;9.13;;;8.10;;
2542;SDS011;1116;51.502;7.414;2023-04-24T06:28:00;10.50;;;7.60;;
2542;SDS011;1116;51.502;7.414;2023-04-24T06:30:32;9.97;;;8.60;;
2542;SDS011;1116;51.502;7.414;2023-04-24T06:33:03;7.43;;;6.67;;
2542;SDS011;1116;51.502;7.414;2023-04-24T06:35:47;6.80;;;6.10;;
2542;SDS011;1116;51.502;7.414;2023-04-24T06:38:18;7.30;;;6.10;;
2542;SDS011;1116;51.502;7.414;2023-04-24T06:40:49;6.63;;;6.03;;
2542;SDS011;1116;51.502;7.414;2023-04-24T06:43:23;7.23;;;6.53;;
2542;SDS011;1116;51.502;7.414;2023-04-24T06:45:54;6.50;;;5.90;;
2542;SDS011;1116;51.502;7.414;2023-04-24T06:48:25;6.90;;;6.20;;
2542;SDS011;1116;51.502;7.414;2023-04-24T06:50:56;6.67;;;5.87;;
2542;SDS011;1116;51.502;7.414;2023-04-24T06:53:27;6.30;;;5.70;;
2542;SDS011;1116;51.502;7.414;2023-04-24T06:55:58;7.67;;;6.20;;
2542;SDS011;1116;51.502;7.414;2023-04-24T06:58:34;6.37;;;5.87;;
2542;SDS011;1116;51.502;7.414;2023-04-24T07:01:05;9.80;;;6.43;;
2542;SDS011;1116;51.502;7.414;2023-04-24T07:03:36;6.73;;;6.10;;
2542;SDS011;1116;51.502;7.414;2023-04-24T07:06:07;5.77;;;5.27;;
2542;SDS011;1116;51.502;7.414;2023-04-24T07:08:38;5.40;;;4.90;;
2542;SDS011;1116;51.502;7.414;2023-04-24T07:11:12;7.00;;;5.77;;
2542;SDS011;1116;51.502;7.414;2023-04-24T07:13:46;6.00;;;5.47;;
2542;SDS011;1116;51.502;7.414;2023-04-24T07:16:17;5.90;;;5.30;;
2542;SDS011;1116;51.502;7.414;2023-04-24T07:18:48;7.00;;;5.57;;
2542;SDS011;1116;51.502;7.414;2023-04-24T07:21:19;7.10;;;6.37;;
2542;SDS011;1116;51.502;7.414;2023-04-24T07:23:50;6.50;;;5.90;;
2542;SDS011;1116;51.502;7.414;2023-04-24T07:26:21;7.20;;;6.60;;
2542;SDS011;1116;51.502;7.414;2023-04-24T07:28:56;7.13;;;6.53;;
2542;SDS011;1116;51.502;7.414;2023-04-24T07:31:27;5.80;;;5.27;;
2542;SDS011;1116;51.502;7.414;2023-04-24T07:33:59;5.43;;;5.03;;
2542;SDS011;1116;51.502;7.414;2023-04-24T07:36:30;5.80;;;5.30;;
2542;SDS011;1116;51.502;7.414;2023-04-24T07:39:01;4.87;;;4.47;;
2542;SDS011;1116;51.502;7.414;2023-04-24T07:41:33;9.63;;;3.73;;
2542;SDS011;1116;51.502;7.414;2023-04-24T07:44:06;4.33;;;4.00;;
2542;SDS011;1116;51.502;7.414;2023-04-24T07:46:41;4.93;;;4.50;;
2542;SDS011;1116;51.502;7.414;2023-04-24T07:49:14;5.00;;;4.60;;
2542;SDS011;1116;51.502;7.414;2023-04-24T07:51:46;5.40;;;4.80;;
2542;SDS011;1116;51.502;7.414;2023-04-24T07:54:20;5.00;;;4.60;;
2542;SDS011;1116;51.502;7.414;2023-04-24T07:56:51;5.87;;;4.57;;
2542;SDS011;1116;51.502;7.414;2023-04-24T07:59:24;5.50;;;5.00;;
2542;SDS011;1116;51.502;7.414;2023-04-24T08:01:55;3.70;;;3.40;;
2542;SDS011;1116;51.502;7.414;2023-04-24T08:04:28;3.90;;;3.50;;
2542;SDS011;1116;51.502;7.414;2023-04-24T08:06:59;2.93;;;2.50;;
2542;SDS011;1116;51.502;7.414;2023-04-24T08:09:30;2.43;;;2.20;;
2542;SDS011;1116;51.502;7.414;2023-04-24T08:12:01;2.03;;;1.83;;
2542;SDS011;1116;51.502;7.414;2023-04-24T08:14:35;2.37;;;1.87;;
2542;SDS011;1116;51.502;7.414;2023-04-24T08:17:06;1.80;;;1.70;;
2542;SDS011;1116;51.502;7.414;2023-04-24T08:19:37;1.60;;;1.50;;
2542;SDS011;1116;51.502;7.414;2023-04-24T08:22:12;2.03;;;1.77;;
2542;SDS011;1116;51.502;7.414;2023-04-24T08:24:45;1.70;;;1.60;;
2542;SDS011;1116;51.502;7.414;2023-04-24T08:27:17;2.33;;;1.20;;
2542;SDS011;1116;51.502;7.414;2023-04-24T08:29:50;2.50;;;1.40;;
2542;SDS011;1116;51.502;7.414;2023-04-24T08:32:23;1.20;;;1.10;;
2542;SDS011;1116;51.502;7.414;2023-04-24T08:34:55;1.17;;;1.07;;
2542;SDS011;1116;51.502;7.414;2023-04-24T08:37:26;1.70;;;1.57;;
2542;SDS011;1116;51.502;7.414;2023-04-24T08:39:57;1.20;;;1.10;;
2542;SDS011;1116;51.502;7.414;2023-04-24T08:42:29;1.00;;;0.90;;
2542;SDS011;1116;51.502;7.414;2023-04-24T08:45:05;0.90;;;0.80;;
2542;SDS011;1116;51.502;7.414;2023-04-24T08:47:37;0.90;;;0.90;;
2542;SDS011;1116;51.502;7.414;2023-04-24T08:50:11;1.40;;;1.00;;
2542;SDS011;1116;51.502;7.414;2023-04-24T08:52:43;0.97;;;0.80;;
2542;SDS011;1116;51.502;7.414;2023-04-24T08:55:15;0.70;;;0.70;;
2542;SDS011;1116;51.502;7.414;2023-04-24T08:57:49;0.90;;;0.80;;
2542;SDS011;1116;51.502;7.414;2023-04-24T09:00:24;1.47;;;0.90;;
2542;SDS011;1116;51.502;7.414;2023-04-24T09:02:56;1.37;;;0.87;;
2542;SDS011;1116;51.502;7.414;2023-04-24T09:05:28;0.83;;;0.67;;
2542;SDS011;1116;51.502;7.414;2023-04-24T09:08:00;1.50;;;0.97;;
2542;SDS011;1116;51.502;7.414;2023-04-24T09:10:34;1.07;;;0.90;;
2542;SDS011;1116;51.502;7.414;2023-04-24T09:13:05;1.07;;;0.90;;
2542;SDS011;1116;51.502;7.414;2023-04-24T09:15:40;1.10;;;1.00;;
2542;SDS011;1116;51.502;7.414;2023-04-24T09:18:11;1.90;;;1.10;;
2542;SDS011;1116;51.502;7.414;2023-04-24T09:23:29;2.03;;;1.43;;
2542;SDS011;1116;51.502;7.414;2023-04-24T09:26:02;1.43;;;1.33;;
2542;SDS011;1116;51.502;7.414;2023-04-24T09:28:35;1.70;;;1.43;;
2542;SDS011;1116;51.502;7.414;2023-04-24T09:31:12;1.93;;;1.60;;
2542;SDS011;1116;51.502;7.414;2023-04-24T09:33:53;1.73;;;1.63;;
2542;SDS011;1116;51.502;7.414;2023-04-24T09:36:28;2.17;;;1.97;;
2542;SDS011;1116;51.502;7.414;2023-04-24T09:39:01;2.90;;;2.70;;
2542;SDS011;1116;51.502;7.414;2023-04-24T09:41:43;4.90;;;2.67;;
2542;SDS011;1116;51.502;7.414;2023-04-24T09:44:16;7.13;;;4.07;;
2542;SDS011;1116;51.502;7.414;2023-04-24T09:46:52;3.13;;;2.93;;
2542;SDS011;1116;51.502;7.414;2023-04-24T09:49:25;3.30;;;2.70;;
2542;SDS011;1116;51.502;7.414;2023-04-24T09:52:02;1.93;;;1.83;;
2542;SDS011;1116;51.502;7.414;2023-04-24T09:54:36;3.70;;;2.40;;
2542;SDS011;1116;51.502;7.414;2023-04-24T09:57:08;3.10;;;2.90;;
2542;SDS011;1116;51.502;7.414;2023-04-24T09:59:41;2.80;;;2.60;;
2542;SDS011;1116;51.502;7.414;2023-04-24T10:02:19;2.80;;;2.27;;
2542;SDS011;1116;51.502;7.414;2023-04-24T10:04:53;2.60;;;2.27;;
2542;SDS011;1116;51.502;7.414;2023-04-24T10:07:27;3.50;;;2.43;;
2542;SDS011;1116;51.502;7.414;2023-04-24T10:09:59;2.67;;;2.43;;
2542;SDS011;1116;51.502;7.414;2023-04-24T10:12:30;2.50;;;2.30;;
2542;SDS011;1116;51.502;7.414;2023-04-24T10:15:02;2.57;;;2.30;;
2542;SDS011;1116;51.502;7.414;2023-04-24T10:17:36;2.67;;;2.03;;
2542;SDS011;1116;51.502;7.414;2023-04-24T10:20:08;2.60;;;2.20;;
2542;SDS011;1116;51.502;7.414;2023-04-24T10:22:42;2.93;;;2.40;;
2542;SDS011;1116;51.502;7.414;2023-04-24T10:25:22;7.03;;;3.23;;
2542;SDS011;1116;51.502;7.414;2023-04-24T10:27:54;2.53;;;2.33;;
2542;SDS011;1116;51.502;7.414;2023-04-24T10:30:27;4.00;;;2.87;;
2542;SDS011;1116;51.502;7.414;2023-04-24T10:33:05;2.83;;;2.63;;
2542;SDS011;1116;51.502;7.414;2023-04-24T10:35:39;3.30;;;3.00;;
2542;SDS011;1116;51.502;7.414;2023-04-24T10:38:12;4.13;;;2.63;;
2542;SDS011;1116;51.502;7.414;2023-04-24T10:40:45;6.43;;;3.27;;
2542;SDS011;1116;51.502;7.414;2023-04-24T10:43:18;3.97;;;3.20;;
2542;SDS011;1116;51.502;7.414;2023-04-24T10:46:01;3.60;;;2.87;;
2542;SDS011;1116;51.502;7.414;2023-04-24T10:48:36;3.00;;;2.70;;
2542;SDS011;1116;51.502;7.414;2023-04-24T10:51:12;4.50;;;3.30;;
2542;SDS011;1116;51.502;7.414;2023-04-24T10:53:44;4.33;;;3.90;;
2542;SDS011;1116;51.502;7.414;2023-04-24T10:56:15;3.63;;;3.33;;
2542;SDS011;1116;51.502;7.414;2023-04-24T10:58:49;5.40;;;3.57;;
2542;SDS011;1116;51.502;7.414;2023-04-24T11:01:26;5.30;;;4.40;;
2542;SDS011;1116;51.502;7.414;2023-04-24T11:04:01;5.03;;;4.53;;
2542;SDS011;1116;51.502;7.414;2023-04-24T11:06:34;5.20;;;4.70;;
2542;SDS011;1116;51.502;7.414;2023-04-24T11:09:06;8.40;;;4.47;;
2542;SDS011;1116;51.502;7.414;2023-04-24T11:11:44;5.87;;;5.20;;
2542;SDS011;1116;51.502;7.414;2023-04-24T11:14:17;5.90;;;4.83;;
2542;SDS011;1116;51.502;7.414;2023-04-24T11:16:51;9.50;;;5.30;;
2542;SDS011;1116;51.502;7.414;2023-04-24T11:19:26;9.63;;;6.10;;
2542;SDS011;1116;51.502;7.414;2023-04-24T11:21:59;6.00;;;5.40;;
2542;SDS011;1116;51.502;7.414;2023-04-24T11:24:32;10.33;;;6.70;;
2542;SDS011;1116;51.502;7.414;2023-04-24T11:27:11;10.40;;;6.30;;
2542;SDS011;1116;51.502;7.414;2023-04-24T11:29:46;13.90;;;5.93;;
2542;SDS011;1116;51.502;7.414;2023-04-24T11:32:19;9.30;;;5.70;;
2542;SDS011;1116;51.502;7.414;2023-04-24T11:35:00;10.13;;;6.70;;
2542;SDS011;1116;51.502;7.414;2023-04-24T11:37:36;11.57;;;6.87;;
2542;SDS011;1116;51.502;7.414;2023-04-24T11:40:09;10.63;;;7.50;;
2542;SDS011;1116;51.502;7.414;2023-04-24T11:42:43;12.13;;;7.17;;
2542;SDS011;1116;51.502;7.414;2023-04-24T11:45:15;9.83;;;6.80;;
2542;SDS011;1116;51.502;7.414;2023-04-24T11:47:48;10.97;;;7.10;;
2542;SDS011;1116;51.502;7.414;2023-04-24T11:50:22;12.40;;;7.53;;
2542;SDS011;1116;51.502;7.414;2023-04-24T11:52:58;14.30;;;7.67;;
2542;SDS011;1116;51.502;7.414;2023-04-24T11:55:29;11.50;;;8.03;;
2542;SDS011;1116;51.502;7.414;2023-04-24T11:58:02;12.40;;;8.03;;
2542;SDS011;1116;51.502;7.414;2023-04-24T12:00:33;14.00;;;8.90;;
2542;SDS011;1116;51.502;7.414;2023-04-24T12:03:06;9.23;;;7.83;;
2542;SDS011;1116;51.502;7.414;2023-04-24T12:05:42;14.20;;;8.67;;
2542;SDS011;1116;51.502;7.414;2023-04-24T12:08:14;14.50;;;8.43;;
2542;SDS011;1116;51.502;7.414;2023-04-24T12:10:59;11.73;;;8.83;;
2542;SDS011;1116;51.502;7.414;2023-04-24T12:13:31;12.60;;;8.27;;
2542;SDS011;1116;51.502;7.414;2023-04-24T12:16:02;10.70;;;8.03;;
2542;SDS011;1116;51.502;7.414;2023-04-24T12:18:34;16.30;;;7.37;;
2542;SDS011;1116;51.502;7.414;2023-04-24T12:21:17;11.60;;;6.07;;
2542;SDS011;1116;51.502;7.414;2023-04-24T12:23:49;12.23;;;5.93;;
2542;SDS011;1116;51.502;7.414;2023-04-24T12:26:21;8.03;;;5.50;;
2542;SDS011;1116;51.502;7.414;2023-04-24T12:28:53;12.40;;;5.70;;
2542;SDS011;1116;51.502;7.414;2023-04-24T12:31:24;10.17;;;5.70;;
2542;SDS011;1116;51.502;7.414;2023-04-24T12:33:57;11.23;;;5.90;;
2542;SDS011;1116;51.502;7.414;2023-04-24T12:36:30;7.33;;;5.20;;
2542;SDS011;1116;51.502;7.414;2023-04-24T12:39:14;9.70;;;5.83;;
2542;SDS011;1116;51.502;7.414;2023-04-24T12:41:55;7.43;;;5.30;;
2542;SDS011;1116;51.502;7.414;2023-04-24T12:44:29;9.10;;;5.40;;
2542;SDS011;1116;51.502;7.414;2023-04-24T12:47:04;5.97;;;4.70;;
2542;SDS011;1116;51.502;7.414;2023-04-24T12:49:36;7.97;;;4.67;;
2542;SDS011;1116;51.502;7.414;2023-04-24T12:52:10;6.53;;;4.70;;
2542;SDS011;1116;51.502;7.414;2023-04-24T12:54:41;8.87;;;5.20;;
2542;SDS011;1116;51.502;7.414;2023-04-24T12:57:16;11.50;;;5.67;;
2542;SDS011;1116;51.502;7.414;2023-04-24T12:59:47;7.13;;;4.50;;
2542;SDS011;1116;51.502;7.414;2023-04-24T13:13:54;6.93;;;4.50;;
2542;SDS011;1116;51.502;7.414;2023-04-24T13:28:27;7.90;;;4.30;;
2542;SDS011;1116;51.502;7.414;2023-04-24T13:31:02;9.57;;;4.10;;
2542;SDS011;1116;51.502;7.414;2023-04-24T13:33:37;8.23;;;4.33;;
2542;SDS011;1116;51.502;7.414;2023-04-24T13:36:08;5.80;;;3.70;;
2542;SDS011;1116;51.502;7.414;2023-04-24T13:38:43;5.57;;;3.43;;
2542;SDS011;1116;51.502;7.414;2023-04-24T13:41:23;4.87;;;3.93;;
2542;SDS011;1116;51.502;7.414;2023-04-24T13:47:22;4.80;;;3.20;;
2542;SDS011;1116;51.502;7.414;2023-04-24T13:49:56;3.90;;;3.40;;
2542;SDS011;1116;51.502;7.414;2023-04-24T13:52:31;4.23;;;3.30;;
2542;SDS011;1116;51.502;7.414;2023-04-24T13:55:10;8.60;;;3.50;;
2542;SDS011;1116;51.502;7.414;2023-04-24T13:58:03;4.43;;;3.33;;
2542;SDS011;1116;51.502;7.414;2023-04-24T14:08:10;2.70;;;1.90;;
2542;SDS011;1116;51.502;7.414;2023-04-24T14:11:32;7.70;;;2.57;;
2542;SDS011;1116;51.502;7.414;2023-04-24T14:20:38;5.07;;;2.10;;
2542;SDS011;1116;51.502;7.414;2023-04-24T14:23:09;4.37;;;2.60;;
2542;SDS011;1116;51.502;7.414;2023-04-24T14:25:40;4.40;;;2.23;;
2542;SDS011;1116;51.502;7.414;2023-04-24T14:31:49;5.27;;;3.03;;
2542;SDS011;1116;51.502;7.414;2023-04-24T14:34:20;3.43;;;2.43;;
2542;SDS011;1116;51.502;7.414;2023-04-24T14:36:53;3.60;;;2.27;;
2542;SDS011;1116;51.502;7.414;2023-04-24T14:39:24;3.37;;;1.80;;
2542;SDS011;1116;51.502;7.414;2023-04-24T14:41:55;5.37;;;1.97;;
2542;SDS011;1116;51.502;7.414;2023-04-24T14:44:26;2.70;;;1.90;;
2542;SDS011;1116;51.502;7.414;2023-04-24T14:47:00;3.87;;;1.70;;
2542;SDS011;1116;51.502;7.414;2023-04-24T14:49:31;4.60;;;2.03;;
2542;SDS011;1116;51.502;7.414;2023-04-24T14:52:05;7.60;;;2.30;;
2542;SDS011;1116;51.502;7.414;2023-04-24T14:54:36;5.80;;;2.40;;
2542;SDS011;1116;51.502;7.414;2023-04-24T14:57:07;4.20;;;2.27;;
2542;SDS011;1116;51.502;7.414;2023-04-24T14:59:38;3.03;;;2.40;;
2542;SDS011;1116;51.502;7.414;2023-04-24T15:02:09;5.23;;;2.80;;
2542;SDS011;1116;51.502;7.414;2023-04-24T15:04:43;4.83;;;2.40;;
2542;SDS011;1116;51.502;7.414;2023-04-24T15:07:17;4.00;;;2.90;;
2542;SDS011;1116;51.502;7.414;2023-04-24T15:09:50;4.67;;;2.90;;
2542;SDS011;1116;51.502;7.414;2023-04-24T15:12:21;3.57;;;3.20;;
2542;SDS011;1116;51.502;7.414;2023-04-24T15:14:52;5.10;;;2.73;;
2542;SDS011;1116;51.502;7.414;2023-04-24T15:17:23;3.93;;;3.50;;
2542;SDS011;1116;51.502;7.414;2023-04-24T15:19:57;8.43;;;3.50;;
2542;SDS011;1116;51.502;7.414;2023-04-24T15:22:30;4.20;;;3.80;;
2542;SDS011;1116;51.502;7.414;2023-04-24T15:25:01;4.43;;;3.87;;
2542;SDS011;1116;51.502;7.414;2023-04-24T15:27:40;5.90;;;4.60;;
2542;SDS011;1116;51.502;7.414;2023-04-24T15:30:12;4.87;;;3.53;;
2542;SDS011;1116;51.502;7.414;2023-04-24T15:32:43;6.10;;;3.60;;
2542;SDS011;1116;51.502;7.414;2023-04-24T15:35:14;8.23;;;4.23;;
2542;SDS011;1116;51.502;7.414;2023-04-24T15:37:51;4.30;;;3.67;;
2542;SDS011;1116;51.502;7.414;2023-04-24T15:40:23;5.83;;;3.40;;
2542;SDS011;1116;51.502;7.414;2023-04-24T15:42:54;3.90;;;3.40;;
2542;SDS011;1116;51.502;7.414;2023-04-24T15:45:25;3.73;;;2.70;;
2542;SDS011;1116;51.502;7.414;2023-04-24T15:47:56;3.10;;;2.80;;
2542;SDS011;1116;51.502;7.414;2023-04-24T15:50:27;4.53;;;3.20;;
2542;SDS011;1116;51.502;7.414;2023-04-24T15:53:00;3.47;;;3.17;;
2542;SDS011;1116;51.502;7.414;2023-04-24T15:55:31;3.63;;;2.63;;
2542;SDS011;1116;51.502;7.414;2023-04-24T15:58:03;3.80;;;2.50;;
2542;SDS011;1116;51.502;7.414;2023-04-24T16:00:34;6.57;;;3.43;;
2542;SDS011;1116;51.502;7.414;2023-04-24T16:03:05;3.60;;;2.53;;
2542;SDS011;1116;51.502;7.414;2023-04-24T16:05:36;3.40;;;2.37;;
2542;SDS011;1116;51.502;7.414;2023-04-24T16:08:10;2.40;;;2.20;;
2542;SDS011;1116;51.502;7.414;2023-04-24T16:10:41;3.17;;;2.50;;
2542;SDS011;1116;51.502;7.414;2023-04-24T16:13:13;2.43;;;2.10;;
2542;SDS011;1116;51.502;7.414;2023-04-24T16:15:45;3.60;;;2.10;;
2542;SDS011;1116;51.502;7.414;2023-04-24T16:18:16;2.43;;;1.80;;
2542;SDS011;1116;51.502;7.414;2023-04-24T16:20:47;2.57;;;2.20;;
2542;SDS011;1116;51.502;7.414;2023-04-24T16:23:21;3.40;;;2.37;;
2542;SDS011;1116;51.502;7.414;2023-04-24T16:25:52;2.50;;;2.10;;
2542;SDS011;1116;51.502;7.414;2023-04-24T16:28:23;2.23;;;1.70;;
2542;SDS011;1116;51.502;7.414;2023-04-24T16:30:54;2.80;;;1.73;;
2542;SDS011;1116;51.502;7.414;2023-04-24T16:33:25;4.87;;;2.10;;